AAL134 KLAX-EGLL
Flight info
| Callsign | AAL134 |
|---|---|
| Flight time | N/A |
| Altitude | 33000 |
| Route | DOTSS2 CLEEE DCT PKE DCT KA30O DCT KD36Q DCT KD45U DCT KD57A DCT KP69G DCT KG75K/N0495F350 DCT BAE DCT ODAXY DCT 4630N08000W DCT MOFAT DCT 52N065W DCT JANJO/M084F360 NATT KESIX/N0485F370 DCT LUTOV DCT NIPIT DCT BOFUM Q37 MALUD Q38 NUGRA |
| Aircraft | B77W/H-SDE1E2E3FGHIJ2J3J4J5M1RWXY/LB1D1 |
Departure
| Time | 2026-05-06 21:22 |
|---|---|
| Airport | Los Angeles International Airport (KLAX) |
Arrival
| Time | N/A |
|---|---|
| Airport | London Heathrow Airport (EGLL) |
| Time | Latitude | Longitude | Altitude | Speed | Heading |
|---|---|---|---|---|---|
| 2026-05-06 20:39 | 33.94105 | -118.40745 | 98 ft | 0 kts | 69° |
| 2026-05-06 21:09 | 33.94097 | -118.40771 | 99 ft | 4 kts | 69° |
| 2026-05-06 21:09 | 33.94088 | -118.40798 | 96 ft | 2 kts | 69° |
| 2026-05-06 21:09 | 33.94085 | -118.40822 | 95 ft | 4 kts | 125° |
| 2026-05-06 21:10 | 33.94105 | -118.40838 | 99 ft | 3 kts | 173° |
| 2026-05-06 21:10 | 33.94087 | -118.40835 | 95 ft | 4 kts | 173° |
| 2026-05-06 21:10 | 33.94060 | -118.40831 | 98 ft | 4 kts | 173° |
| 2026-05-06 21:10 | 33.94033 | -118.40827 | 100 ft | 4 kts | 173° |
| 2026-05-06 21:11 | 33.94008 | -118.40823 | 98 ft | 1 kts | 173° |
| 2026-05-06 21:11 | 33.94007 | -118.40823 | 98 ft | 0 kts | 173° |
| 2026-05-06 21:14 | 33.93987 | -118.40820 | 99 ft | 11 kts | 173° |
| 2026-05-06 21:14 | 33.93890 | -118.40766 | 99 ft | 18 kts | 107° |
| 2026-05-06 21:14 | 33.93894 | -118.40668 | 99 ft | 18 kts | 83° |
| 2026-05-06 21:15 | 33.93912 | -118.40495 | 100 ft | 10 kts | 83° |
| 2026-05-06 21:15 | 33.93920 | -118.40410 | 98 ft | 11 kts | 83° |
| 2026-05-06 21:15 | 33.93929 | -118.40320 | 98 ft | 9 kts | 83° |
| 2026-05-06 21:15 | 33.93938 | -118.40226 | 101 ft | 17 kts | 83° |
| 2026-05-06 21:16 | 33.93950 | -118.40107 | 99 ft | 9 kts | 83° |
| 2026-05-06 21:16 | 33.93915 | -118.40045 | 101 ft | 9 kts | 136° |
| 2026-05-06 21:16 | 33.93884 | -118.39953 | 104 ft | 17 kts | 89° |
| 2026-05-06 21:16 | 33.93898 | -118.39806 | 103 ft | 18 kts | 83° |
| 2026-05-06 21:17 | 33.93913 | -118.39660 | 101 ft | 18 kts | 83° |
| 2026-05-06 21:17 | 33.93929 | -118.39513 | 101 ft | 18 kts | 82° |
| 2026-05-06 21:17 | 33.93944 | -118.39367 | 100 ft | 18 kts | 83° |
| 2026-05-06 21:17 | 33.93960 | -118.39209 | 99 ft | 23 kts | 83° |
| 2026-05-06 21:18 | 33.93980 | -118.39005 | 99 ft | 24 kts | 83° |
| 2026-05-06 21:18 | 33.94000 | -118.38807 | 101 ft | 24 kts | 83° |
| 2026-05-06 21:18 | 33.94021 | -118.38606 | 100 ft | 24 kts | 83° |
| 2026-05-06 21:18 | 33.94040 | -118.38418 | 103 ft | 18 kts | 83° |
| 2026-05-06 21:19 | 33.94056 | -118.38268 | 101 ft | 18 kts | 83° |
| 2026-05-06 21:19 | 33.94071 | -118.38122 | 100 ft | 12 kts | 83° |
| 2026-05-06 21:19 | 33.94077 | -118.38044 | 98 ft | 0 kts | 94° |
| 2026-05-06 21:20 | 33.94077 | -118.38043 | 98 ft | 0 kts | 95° |
| 2026-05-06 21:20 | 33.94059 | -118.38016 | 99 ft | 9 kts | 142° |
| 2026-05-06 21:21 | 33.93994 | -118.38020 | 99 ft | 11 kts | 231° |
| 2026-05-06 21:21 | 33.93976 | -118.38106 | 99 ft | 11 kts | 261° |
| 2026-05-06 21:21 | 33.93974 | -118.38119 | 99 ft | 0 kts | 262° |
| 2026-05-06 21:21 | 33.93968 | -118.38181 | 103 ft | 33 kts | 263° |
| 2026-05-06 21:22 | 33.93909 | -118.38760 | 100 ft | 105 kts | 263° |
| 2026-05-06 21:22 | 33.93792 | -118.39898 | 104 ft | 165 kts | 263° |
| 2026-05-06 21:22 | 33.93647 | -118.41407 | 400 ft | 186 kts | 263° |
| 2026-05-06 21:22 | 33.93511 | -118.42903 | 1201 ft | 181 kts | 262° |
| 2026-05-06 21:23 | 33.93350 | -118.44448 | 1825 ft | 194 kts | 263° |
| 2026-05-06 21:23 | 33.93162 | -118.46141 | 2069 ft | 213 kts | 257° |
| 2026-05-06 21:23 | 33.92385 | -118.47718 | 2219 ft | 230 kts | 223° |
| 2026-05-06 21:23 | 33.91147 | -118.49012 | 2612 ft | 243 kts | 223° |
| 2026-05-06 21:24 | 33.89942 | -118.50535 | 2942 ft | 259 kts | 231° |
| 2026-05-06 21:24 | 33.88779 | -118.52233 | 3487 ft | 269 kts | 232° |
| 2026-05-06 21:24 | 33.87571 | -118.53998 | 4167 ft | 275 kts | 232° |
| 2026-05-06 21:24 | 33.86165 | -118.55566 | 4846 ft | 279 kts | 207° |
| 2026-05-06 21:25 | 33.84294 | -118.56035 | 5647 ft | 278 kts | 173° |
| 2026-05-06 21:25 | 33.82424 | -118.55569 | 6298 ft | 281 kts | 164° |
| 2026-05-06 21:25 | 33.80505 | -118.55019 | 6998 ft | 284 kts | 165° |
| 2026-05-06 21:25 | 33.78564 | -118.54482 | 7746 ft | 289 kts | 165° |
| 2026-05-06 21:26 | 33.76585 | -118.53941 | 8471 ft | 294 kts | 165° |
| 2026-05-06 21:26 | 33.74579 | -118.53396 | 9244 ft | 297 kts | 164° |
| 2026-05-06 21:26 | 33.72547 | -118.52846 | 10022 ft | 301 kts | 164° |
| 2026-05-06 21:26 | 33.70589 | -118.51991 | 10480 ft | 304 kts | 142° |
| 2026-05-06 21:27 | 33.69139 | -118.50108 | 10653 ft | 317 kts | 113° |
| 2026-05-06 21:27 | 33.68342 | -118.47592 | 10816 ft | 333 kts | 105° |
| 2026-05-06 21:27 | 33.67567 | -118.44857 | 11028 ft | 358 kts | 106° |
| 2026-05-06 21:27 | 33.66744 | -118.42030 | 11535 ft | 370 kts | 106° |
| 2026-05-06 21:28 | 33.65875 | -118.39085 | 12212 ft | 377 kts | 106° |
| 2026-05-06 21:28 | 33.64990 | -118.36098 | 13003 ft | 382 kts | 106° |
| 2026-05-06 21:28 | 33.64316 | -118.33045 | 13607 ft | 379 kts | 92° |
| 2026-05-06 21:28 | 33.64297 | -118.29879 | 14115 ft | 383 kts | 85° |
| 2026-05-06 21:29 | 33.64365 | -118.26664 | 14817 ft | 387 kts | 86° |
| 2026-05-06 21:29 | 33.64414 | -118.23430 | 15660 ft | 388 kts | 86° |
| 2026-05-06 21:29 | 33.64444 | -118.20177 | 16445 ft | 391 kts | 86° |
| 2026-05-06 21:29 | 33.64460 | -118.16895 | 17151 ft | 396 kts | 86° |
| 2026-05-06 21:30 | 33.64467 | -118.13579 | 17846 ft | 400 kts | 86° |
| 2026-05-06 21:30 | 33.64468 | -118.10222 | 18562 ft | 404 kts | 86° |
| 2026-05-06 21:30 | 33.64466 | -118.06882 | 19189 ft | 407 kts | 87° |
| 2026-05-06 21:30 | 33.64462 | -118.03468 | 19834 ft | 410 kts | 87° |
| 2026-05-06 21:31 | 33.64457 | -118.00033 | 20467 ft | 414 kts | 86° |
| 2026-05-06 21:31 | 33.64451 | -117.96570 | 21180 ft | 414 kts | 86° |
| 2026-05-06 21:31 | 33.64442 | -117.93163 | 22326 ft | 403 kts | 86° |
| 2026-05-06 21:31 | 33.64434 | -117.89841 | 23469 ft | 393 kts | 86° |
| 2026-05-06 21:32 | 33.64426 | -117.86613 | 24559 ft | 379 kts | 86° |
| 2026-05-06 21:32 | 33.64412 | -117.80390 | 26113 ft | 372 kts | 84° |
| 2026-05-06 21:32 | 33.64666 | -117.77351 | 26553 ft | 371 kts | 74° |
| 2026-05-06 21:33 | 33.65250 | -117.74326 | 26996 ft | 374 kts | 72° |
| 2026-05-06 21:33 | 33.65884 | -117.71297 | 27492 ft | 376 kts | 72° |
| 2026-05-06 21:33 | 33.66521 | -117.68246 | 28023 ft | 378 kts | 72° |
| 2026-05-06 21:33 | 33.67146 | -117.65176 | 28544 ft | 379 kts | 73° |
| 2026-05-06 21:34 | 33.67759 | -117.62088 | 29053 ft | 381 kts | 73° |
| 2026-05-06 21:34 | 33.68367 | -117.58977 | 29523 ft | 384 kts | 73° |
| 2026-05-06 21:34 | 33.68973 | -117.55835 | 29938 ft | 388 kts | 73° |
| 2026-05-06 21:34 | 33.69577 | -117.52675 | 30363 ft | 389 kts | 73° |
| 2026-05-06 21:35 | 33.70170 | -117.49544 | 30654 ft | 391 kts | 73° |
| 2026-05-06 21:35 | 33.70776 | -117.46352 | 31043 ft | 392 kts | 73° |
| 2026-05-06 21:35 | 33.71389 | -117.43160 | 31503 ft | 392 kts | 73° |
| 2026-05-06 21:35 | 33.72000 | -117.39964 | 31916 ft | 393 kts | 73° |
| 2026-05-06 21:36 | 33.72609 | -117.36757 | 32235 ft | 396 kts | 73° |
| 2026-05-06 21:36 | 33.73223 | -117.33514 | 32387 ft | 402 kts | 73° |
| 2026-05-06 21:36 | 33.74485 | -117.26843 | 32619 ft | 415 kts | 73° |
| 2026-05-06 21:37 | 33.75096 | -117.23439 | 32910 ft | 419 kts | 77° |
| 2026-05-06 21:37 | 33.75285 | -117.19904 | 33034 ft | 431 kts | 86° |
| 2026-05-06 21:37 | 33.74994 | -117.12674 | 33101 ft | 443 kts | 88° |